Time;durP1;ratioP1;P1;durP2;ratioP2;P2;SDS_P1;SDS_P2;PMS_P1;PMS_P2;Temp;Humidity;BMP_temperature;BMP_pressure;BME280_temperature;BME280_humidity;BME280_pressure;Samples;Min_cycle;Max_cycle;Signal;HPM_P1;HPM_P2
2023/05/18 00:02:02;;;;;;;1.95;1.27;;;18.20;57.90;;;;;;5073158;28;20239;-62
2023/05/18 00:04:32;;;;;;;2.85;1.30;;;18.20;57.90;;;;;;5073299;28;20735;-62
2023/05/18 00:07:02;;;;;;;1.50;1.05;;;18.20;57.90;;;;;;5073312;28;20170;-62
2023/05/18 00:09:31;;;;;;;1.50;1.20;;;18.20;57.90;;;;;;5072775;28;20205;-61
2023/05/18 00:11:57;;;;;;;2.25;1.15;;;18.10;57.80;;;;;;5073762;28;20211;-61
2023/05/18 00:14:22;;;;;;;2.20;1.20;;;18.20;57.90;;;;;;5073325;28;20251;-61
2023/05/18 00:16:48;;;;;;;1.40;1.15;;;18.10;57.80;;;;;;5072709;28;20173;-61
2023/05/18 00:19:14;;;;;;;3.22;1.48;;;18.10;57.80;;;;;;5073089;28;20218;-60
2023/05/18 00:21:45;;;;;;;1.75;1.10;;;18.10;57.80;;;;;;5073668;28;20174;-61
2023/05/18 00:24:10;;;;;;;1.20;1.00;;;18.10;57.80;;;;;;5072341;28;20633;-62
2023/05/18 00:26:40;;;;;;;1.27;1.17;;;18.10;57.80;;;;;;5073443;28;20185;-62
2023/05/18 00:29:05;;;;;;;1.98;1.60;;;18.10;57.80;;;;;;5073069;28;20259;-61
2023/05/18 00:31:35;;;;;;;2.38;1.05;;;18.10;57.80;;;;;;5072598;28;20186;-62
2023/05/18 00:34:01;;;;;;;1.75;1.20;;;18.10;57.80;;;;;;5073035;28;20198;-62
2023/05/18 00:36:27;;;;;;;1.60;1.13;;;18.10;57.80;;;;;;5073148;28;20201;-61
2023/05/18 00:38:52;;;;;;;1.73;1.27;;;18.10;57.80;;;;;;5072397;28;20607;-61
2023/05/18 00:41:18;;;;;;;1.10;1.00;;;18.10;57.80;;;;;;5072808;28;20526;-61
2023/05/18 00:43:43;;;;;;;2.08;1.67;;;18.00;57.80;;;;;;5073024;28;20182;-61
2023/05/18 00:46:10;;;;;;;2.22;1.17;;;18.10;57.80;;;;;;5071996;28;20227;-61
2023/05/18 00:48:35;;;;;;;1.48;1.25;;;18.10;57.80;;;;;;5072933;28;20633;-61
2023/05/18 00:51:01;;;;;;;1.63;1.33;;;18.00;57.80;;;;;;5072229;28;20180;-61
2023/05/18 00:53:27;;;;;;;2.03;1.73;;;18.00;57.80;;;;;;5071656;28;20252;-61
2023/05/18 00:55:52;;;;;;;1.98;1.45;;;18.00;57.80;;;;;;5073044;28;20213;-61
2023/05/18 00:58:18;;;;;;;1.60;1.20;;;18.00;57.80;;;;;;5070736;28;20301;-61
2023/05/18 01:00:44;;;;;;;1.48;1.00;;;18.00;57.80;;;;;;5072860;28;20177;-62
2023/05/18 01:03:10;;;;;;;1.42;1.33;;;18.00;57.80;;;;;;5071214;28;20206;-62
2023/05/18 01:05:36;;;;;;;1.13;1.02;;;18.00;57.80;;;;;;5071108;28;20170;-62
2023/05/18 01:08:01;;;;;;;2.10;1.40;;;18.00;57.80;;;;;;5073653;28;20175;-61
2023/05/18 01:10:27;;;;;;;1.40;1.30;;;18.00;57.80;;;;;;5072646;28;20194;-61
2023/05/18 01:12:59;;;;;;;2.83;1.33;;;18.00;57.80;;;;;;5070926;28;20174;-61
2023/05/18 01:15:31;;;;;;;2.05;1.38;;;18.00;57.80;;;;;;5071240;28;20265;-60
2023/05/18 01:18:05;;;;;;;1.30;1.20;;;18.00;57.80;;;;;;5073598;28;20673;-61
2023/05/18 01:20:36;;;;;;;1.30;1.17;;;18.00;57.80;;;;;;5074934;28;20672;-61
2023/05/18 01:23:35;;;;;;;1.67;1.10;;;18.00;57.80;;;;;;5076917;28;20232;-60
2023/05/18 01:26:15;;;;;;;1.58;1.08;;;17.90;57.80;;;;;;5076269;28;20627;-61
2023/05/18 01:28:42;;;;;;;1.40;1.27;;;18.00;57.80;;;;;;5075522;28;20710;-61
2023/05/18 01:31:07;;;;;;;1.88;1.20;;;18.00;57.80;;;;;;5075216;28;20273;-61
2023/05/18 01:33:33;;;;;;;1.35;1.23;;;17.90;58.40;;;;;;5074851;28;20717;-61
2023/05/18 01:35:58;;;;;;;2.40;1.10;;;17.90;57.70;;;;;;5076440;28;20715;-61
2023/05/18 01:38:25;;;;;;;1.83;1.30;;;17.90;57.70;;;;;;5074914;28;20619;-61
2023/05/18 01:41:12;;;;;;;2.28;1.45;;;17.90;57.70;;;;;;5074861;28;20174;-61
2023/05/18 01:43:49;;;;;;;1.92;1.23;;;17.90;57.80;;;;;;5076450;28;20699;-61
2023/05/18 01:46:24;;;;;;;1.35;1.20;;;17.90;57.70;;;;;;5074879;28;20612;-61
2023/05/18 01:48:54;;;;;;;2.22;1.15;;;17.90;57.70;;;;;;5075605;28;20269;-61
2023/05/18 01:51:20;;;;;;;1.65;1.20;;;17.90;57.70;;;;;;5074979;28;20178;-61
2023/05/18 01:53:50;;;;;;;1.42;1.20;;;17.90;57.80;;;;;;5074994;28;20261;-62
2023/05/18 01:56:15;;;;;;;2.03;1.33;;;17.90;57.80;;;;;;5073927;28;20636;-61
2023/05/18 01:58:41;;;;;;;1.90;1.17;;;17.80;57.70;;;;;;5074999;28;20241;-62
2023/05/18 02:01:06;;;;;;;1.58;1.20;;;17.90;57.80;;;;;;5075713;28;20269;-62
2023/05/18 02:03:32;;;;;;;2.20;1.45;;;17.80;57.70;;;;;;5074045;28;20175;-62
2023/05/18 02:05:57;;;;;;;1.48;1.38;;;17.90;58.40;;;;;;5076176;28;20167;-62
2023/05/18 02:08:23;;;;;;;1.75;1.25;;;17.80;57.70;;;;;;5075049;28;20186;-61
2023/05/18 02:10:48;;;;;;;1.83;1.27;;;17.80;57.80;;;;;;5076042;28;20196;-61
2023/05/18 02:13:14;;;;;;;1.67;1.13;;;17.80;57.70;;;;;;5075647;28;20178;-60
2023/05/18 02:15:39;;;;;;;1.27;1.20;;;17.80;57.70;;;;;;5074987;28;20174;-60
2023/05/18 02:18:07;;;;;;;2.75;1.33;;;17.80;57.70;;;;;;5075335;28;20289;-61
2023/05/18 02:20:32;;;;;;;1.58;1.30;;;17.80;57.70;;;;;;5075877;28;20177;-61
2023/05/18 02:22:58;;;;;;;1.58;1.30;;;17.80;57.70;;;;;;5075071;28;20170;-61
2023/05/18 02:25:24;;;;;;;1.33;1.15;;;17.80;57.70;;;;;;5075601;28;20823;-61
2023/05/18 02:27:51;;;;;;;1.70;1.30;;;17.80;57.70;;;;;;5075632;28;20743;-61
2023/05/18 02:30:17;;;;;;;1.85;1.20;;;17.80;57.70;;;;;;5074757;28;20175;-62
2023/05/18 02:32:45;;;;;;;1.88;1.42;;;17.80;57.70;;;;;;5075761;28;20175;-64
2023/05/18 02:35:11;;;;;;;2.45;1.38;;;17.70;57.70;;;;;;5074921;28;20586;-61
2023/05/18 02:37:41;;;;;;;2.08;1.30;;;17.70;57.70;;;;;;5074775;28;20289;-61
2023/05/18 02:40:09;;;;;;;1.40;1.30;;;17.80;57.70;;;;;;5075128;28;20174;-61
2023/05/18 02:42:35;;;;;;;1.38;1.20;;;17.70;57.70;;;;;;5075316;28;20166;-61
2023/05/18 02:45:01;;;;;;;1.65;1.20;;;17.70;57.70;;;;;;5074467;28;20181;-62
2023/05/18 02:47:26;;;;;;;1.52;1.20;;;17.70;57.70;;;;;;5074837;28;20181;-61
2023/05/18 02:49:52;;;;;;;1.52;1.35;;;17.70;57.70;;;;;;5075416;28;20179;-61
2023/05/18 02:52:17;;;;;;;1.23;1.02;;;17.70;57.70;;;;;;5074317;28;20188;-61
2023/05/18 02:54:43;;;;;;;1.33;1.20;;;17.70;57.70;;;;;;5075324;28;20254;-62
2023/05/18 02:57:10;;;;;;;2.60;1.42;;;17.70;57.70;;;;;;5074598;28;20700;-61
2023/05/18 02:59:36;;;;;;;1.15;1.05;;;17.70;57.70;;;;;;5074263;28;20186;-62
2023/05/18 03:02:02;;;;;;;1.90;1.25;;;17.70;57.70;;;;;;5075154;28;20265;-62
2023/05/18 03:04:27;;;;;;;1.42;1.20;;;17.70;57.70;;;;;;5074514;28;20544;-62
2023/05/18 03:06:53;;;;;;;1.95;1.20;;;17.70;57.70;;;;;;5074670;28;20174;-61
2023/05/18 03:09:18;;;;;;;2.38;1.48;;;17.70;57.70;;;;;;5074697;28;20525;-60
2023/05/18 03:11:44;;;;;;;1.10;1.00;;;17.70;57.70;;;;;;5074270;28;20640;-61
2023/05/18 03:14:10;;;;;;;1.10;1.00;;;17.70;57.70;;;;;;5074407;28;20178;-61
2023/05/18 03:16:37;;;;;;;1.88;1.30;;;17.70;57.70;;;;;;5074461;28;20308;-60
2023/05/18 03:19:03;;;;;;;1.23;1.15;;;17.60;57.70;;;;;;5073981;28;20221;-61
2023/05/18 03:21:32;;;;;;;1.40;1.30;;;17.70;57.80;;;;;;5074239;28;20178;-61
2023/05/18 03:23:58;;;;;;;4.70;1.92;;;17.60;57.70;;;;;;5074616;28;20182;-61
2023/05/18 03:26:24;;;;;;;1.75;1.40;;;17.60;57.70;;;;;;5073565;28;20178;-61
2023/05/18 03:28:50;;;;;;;1.90;1.50;;;17.60;57.70;;;;;;5074406;28;20182;-61
2023/05/18 03:31:16;;;;;;;1.42;1.30;;;17.60;57.70;;;;;;5074150;28;20625;-62
2023/05/18 03:33:41;;;;;;;1.42;1.20;;;17.60;57.70;;;;;;5073788;28;20181;-62
2023/05/18 03:36:07;;;;;;;2.45;1.60;;;17.60;57.70;;;;;;5073817;28;20226;-62
2023/05/18 03:38:33;;;;;;;2.10;1.20;;;17.60;57.70;;;;;;5074640;28;20292;-61
2023/05/18 03:40:58;;;;;;;1.55;1.33;;;17.60;57.70;;;;;;5073071;28;20625;-61
2023/05/18 03:43:24;;;;;;;1.58;1.25;;;17.60;57.70;;;;;;5073982;28;21054;-61
2023/05/18 03:45:50;;;;;;;1.30;1.20;;;17.60;57.70;;;;;;5074341;28;20178;-61
2023/05/18 03:48:16;;;;;;;1.55;1.20;;;17.60;57.70;;;;;;5073238;28;20174;-61
2023/05/18 03:50:42;;;;;;;2.50;1.40;;;17.60;57.70;;;;;;5074149;28;20163;-61
2023/05/18 03:53:08;;;;;;;1.30;1.20;;;17.60;57.70;;;;;;5073753;28;20261;-61
2023/05/18 03:55:33;;;;;;;1.52;1.25;;;17.60;57.70;;;;;;5073204;28;20253;-61
2023/05/18 03:57:59;;;;;;;1.60;1.50;;;17.60;57.70;;;;;;5073863;28;20656;-61
2023/05/18 04:00:25;;;;;;;1.75;1.20;;;17.60;57.60;;;;;;5073759;28;20543;-62
2023/05/18 04:02:50;;;;;;;1.75;1.38;;;17.50;57.60;;;;;;5072974;28;20174;-61
2023/05/18 04:05:16;;;;;;;1.50;1.00;;;17.60;57.60;;;;;;5073443;28;20178;-62
2023/05/18 04:07:45;;;;;;;1.27;1.10;;;17.60;57.60;;;;;;5073792;28;20178;-61
2023/05/18 04:10:11;;;;;;;1.33;1.23;;;17.60;57.60;;;;;;5073053;28;20209;-61
2023/05/18 04:12:37;;;;;;;1.42;1.15;;;17.60;57.60;;;;;;5073522;28;20694;-61
2023/05/18 04:15:03;;;;;;;1.60;1.50;;;17.60;57.60;;;;;;5072904;28;20181;-61
2023/05/18 04:17:28;;;;;;;1.60;1.50;;;17.60;57.60;;;;;;5073292;28;20175;-60
2023/05/18 04:19:54;;;;;;;1.58;1.15;;;17.60;57.60;;;;;;5073385;28;20247;-61
2023/05/18 04:22:20;;;;;;;1.73;1.20;;;17.60;57.60;;;;;;5072308;28;20170;-61
2023/05/18 04:24:46;;;;;;;1.08;1.02;;;17.60;57.60;;;;;;5073322;28;20189;-61
2023/05/18 04:27:12;;;;;;;2.03;1.55;;;17.60;57.50;;;;;;5072948;28;20170;-61
2023/05/18 04:29:38;;;;;;;1.65;1.25;;;17.60;57.50;;;;;;5072489;28;20683;-61
2023/05/18 04:32:06;;;;;;;1.55;1.40;;;17.60;57.50;;;;;;5073503;28;20182;-62
2023/05/18 04:34:33;;;;;;;1.75;1.17;;;17.60;57.50;;;;;;5073180;28;20226;-61
2023/05/18 04:36:58;;;;;;;1.63;1.30;;;17.60;57.50;;;;;;5072660;28;20177;-61
2023/05/18 04:39:24;;;;;;;2.47;1.70;;;17.60;57.50;;;;;;5071698;28;20646;-61
2023/05/18 04:41:56;;;;;;;1.40;1.30;;;17.60;57.50;;;;;;5073117;28;20521;-61
2023/05/18 04:44:24;;;;;;;1.73;1.30;;;17.60;57.50;;;;;;5072318;28;20178;-61
2023/05/18 04:46:51;;;;;;;2.15;1.30;;;17.60;57.50;;;;;;5072988;28;20621;-61
2023/05/18 04:49:20;;;;;;;1.30;1.20;;;17.60;57.40;;;;;;5072823;28;20179;-61
2023/05/18 04:51:48;;;;;;;1.65;1.30;;;17.60;57.40;;;;;;5071559;28;20254;-60
2023/05/18 04:54:14;;;;;;;2.05;1.35;;;17.60;58.00;;;;;;5072705;28;20265;-61
2023/05/18 04:56:40;;;;;;;1.80;1.17;;;17.60;57.40;;;;;;5073147;28;20173;-61
2023/05/18 04:59:08;;;;;;;1.65;1.10;;;17.70;57.40;;;;;;5072006;28;20642;-62
2023/05/18 05:01:33;;;;;;;1.75;1.40;;;17.60;57.40;;;;;;5072958;28;20175;-61
2023/05/18 05:03:59;;;;;;;1.40;1.30;;;17.70;57.40;;;;;;5072785;28;20265;-62
2023/05/18 05:06:24;;;;;;;4.43;1.55;;;17.60;57.40;;;;;;5071970;28;20224;-62
2023/05/18 05:08:50;;;;;;;2.05;1.30;;;17.60;57.30;;;;;;5072717;28;20665;-61
2023/05/18 05:11:16;;;;;;;1.92;1.15;;;17.70;57.40;;;;;;5071739;28;20170;-61
2023/05/18 05:13:41;;;;;;;1.85;1.17;;;17.60;57.30;;;;;;5072695;28;20660;-61
2023/05/18 05:16:07;;;;;;;1.30;1.20;;;17.60;57.40;;;;;;5072490;28;20175;-61
2023/05/18 05:18:32;;;;;;;1.70;1.40;;;17.60;57.40;;;;;;5072147;28;20691;-61
2023/05/18 05:20:58;;;;;;;1.92;1.20;;;17.60;57.40;;;;;;5072820;28;20240;-61
2023/05/18 05:23:24;;;;;;;2.20;1.17;;;17.60;57.30;;;;;;5072467;28;20586;-60
2023/05/18 05:25:49;;;;;;;1.70;1.60;;;17.60;57.30;;;;;;5072011;28;20163;-61
2023/05/18 05:28:15;;;;;;;1.50;1.40;;;17.60;57.30;;;;;;5072559;28;20688;-61
2023/05/18 05:30:40;;;;;;;2.42;1.77;;;17.70;57.40;;;;;;5072802;28;20531;-61
2023/05/18 05:33:06;;;;;;;2.33;1.08;;;17.70;57.40;;;;;;5071773;28;20755;-62
2023/05/18 05:35:31;;;;;;;1.20;1.10;;;17.70;57.40;;;;;;5072435;28;20218;-61
2023/05/18 05:37:57;;;;;;;2.00;1.25;;;17.70;57.40;;;;;;5072358;28;20255;-61
2023/05/18 05:40:23;;;;;;;2.53;1.33;;;17.60;57.30;;;;;;5071714;28;20224;-61
2023/05/18 05:42:49;;;;;;;2.20;1.25;;;17.70;57.40;;;;;;5072638;28;20224;-62
2023/05/18 05:45:14;;;;;;;1.75;1.42;;;17.70;57.40;;;;;;5072175;28;20178;-61
2023/05/18 05:47:40;;;;;;;1.58;1.40;;;17.60;57.40;;;;;;5071919;28;20185;-61
2023/05/18 05:50:06;;;;;;;1.85;1.35;;;17.70;57.40;;;;;;5072220;28;20175;-61
2023/05/18 05:52:31;;;;;;;1.98;1.15;;;17.70;57.40;;;;;;5072382;28;20166;-61
2023/05/18 05:54:57;;;;;;;1.33;1.00;;;17.60;57.40;;;;;;5071927;28;20184;-61
2023/05/18 05:57:22;;;;;;;1.30;1.20;;;17.60;57.40;;;;;;5072170;28;20224;-61
2023/05/18 05:59:48;;;;;;;1.75;1.38;;;17.60;57.40;;;;;;5072493;28;20170;-62
2023/05/18 06:02:13;;;;;;;2.45;1.25;;;17.60;57.40;;;;;;5071245;28;20223;-62
2023/05/18 06:04:39;;;;;;;1.80;1.25;;;17.60;57.40;;;;;;5075470;28;20171;-62
2023/05/18 06:07:05;;;;;;;1.92;1.20;;;17.60;57.40;;;;;;5075677;28;20617;-62
2023/05/18 06:09:30;;;;;;;1.70;1.55;;;17.60;57.40;;;;;;5075116;28;20178;-61
2023/05/18 06:11:56;;;;;;;1.20;1.05;;;17.60;57.30;;;;;;5076056;28;20702;-60
2023/05/18 06:14:21;;;;;;;2.70;1.40;;;17.60;57.40;;;;;;5075317;28;20185;-61
2023/05/18 06:16:47;;;;;;;1.35;1.05;;;17.60;57.30;;;;;;5075515;28;20546;-61
2023/05/18 06:19:12;;;;;;;1.52;1.25;;;17.60;57.30;;;;;;5075552;28;20579;-61
2023/05/18 06:21:38;;;;;;;2.05;1.23;;;17.70;58.00;;;;;;5075098;28;20708;-61
2023/05/18 06:24:04;;;;;;;1.27;1.15;;;17.60;57.40;;;;;;5075823;28;20261;-61
2023/05/18 06:26:30;;;;;;;1.40;1.20;;;17.60;57.40;;;;;;5075828;28;20174;-61
2023/05/18 06:28:56;;;;;;;2.22;1.50;;;17.60;57.40;;;;;;5074916;28;20180;-61
2023/05/18 06:31:21;;;;;;;1.80;1.20;;;17.60;57.40;;;;;;5075261;28;20573;-62
2023/05/18 06:33:47;;;;;;;2.13;1.40;;;17.70;57.40;;;;;;5074224;28;20178;-62
2023/05/18 06:36:13;;;;;;;1.65;1.27;;;17.60;57.40;;;;;;5074474;28;20222;-61
2023/05/18 06:38:39;;;;;;;1.13;1.08;;;17.60;57.40;;;;;;5075204;28;20252;-61
2023/05/18 06:41:05;;;;;;;1.50;1.40;;;17.60;57.40;;;;;;5075272;28;20197;-61
2023/05/18 06:43:30;;;;;;;1.85;1.15;;;17.60;57.40;;;;;;5074878;28;20170;-62
2023/05/18 06:45:56;;;;;;;1.55;1.20;;;17.70;57.40;;;;;;5075672;28;20174;-62
2023/05/18 06:48:24;;;;;;;2.03;1.20;;;17.70;57.40;;;;;;5074977;28;20238;-62
2023/05/18 06:50:49;;;;;;;2.28;1.20;;;17.70;57.40;;;;;;5074350;28;20540;-61
2023/05/18 06:53:15;;;;;;;1.60;1.20;;;17.70;57.40;;;;;;5074721;28;20182;-61
2023/05/18 06:55:40;;;;;;;1.38;1.10;;;17.70;57.40;;;;;;5075343;28;20182;-61
2023/05/18 06:58:09;;;;;;;2.30;1.38;;;17.70;57.40;;;;;;5074137;28;20206;-62
2023/05/18 07:00:34;;;;;;;1.70;1.40;;;17.70;57.40;;;;;;5075070;28;20625;-62
2023/05/18 07:03:00;;;;;;;1.75;1.23;;;17.70;57.30;;;;;;5075054;28;20188;-62
2023/05/18 07:05:26;;;;;;;1.73;1.10;;;17.70;57.30;;;;;;5073808;28;20171;-62
2023/05/18 07:07:52;;;;;;;1.83;1.42;;;17.70;57.30;;;;;;5074715;28;20224;-61
2023/05/18 07:10:17;;;;;;;1.75;1.40;;;17.70;57.20;;;;;;5074663;28;20185;-61
2023/05/18 07:12:43;;;;;;;2.78;1.45;;;17.80;57.20;;;;;;5074162;28;20200;-61
2023/05/18 07:15:10;;;;;;;1.70;1.20;;;17.80;57.20;;;;;;5073520;28;20173;-61
2023/05/18 07:17:36;;;;;;;1.42;1.10;;;17.80;57.30;;;;;;5074668;28;20257;-61
2023/05/18 07:20:04;;;;;;;1.27;1.20;;;17.80;57.10;;;;;;5072666;28;20175;-61
2023/05/18 07:22:30;;;;;;;1.92;1.10;;;17.80;57.10;;;;;;5074707;28;20178;-61
2023/05/18 07:24:57;;;;;;;1.40;1.20;;;17.80;57.00;;;;;;5073978;28;20166;-61
2023/05/18 07:27:23;;;;;;;1.63;1.10;;;17.80;57.00;;;;;;5074337;28;20190;-61
2023/05/18 07:29:48;;;;;;;2.60;1.50;;;17.80;57.00;;;;;;5074689;28;20536;-62
2023/05/18 07:32:14;;;;;;;1.40;1.30;;;17.90;57.00;;;;;;5073526;28;20171;-62
2023/05/18 07:34:41;;;;;;;1.45;1.30;;;17.90;57.00;;;;;;5074202;28;20291;-62
2023/05/18 07:37:07;;;;;;;2.40;1.27;;;17.90;57.00;;;;;;5073868;28;20579;-61
2023/05/18 07:39:32;;;;;;;1.27;1.00;;;17.90;56.90;;;;;;5073549;28;20243;-61
2023/05/18 07:41:58;;;;;;;1.58;1.30;;;17.90;56.90;;;;;;5074276;28;20166;-61
2023/05/18 07:44:23;;;;;;;1.65;1.20;;;17.90;56.90;;;;;;5073773;28;20178;-62
2023/05/18 07:46:49;;;;;;;1.92;1.30;;;17.90;56.90;;;;;;5073395;28;20224;-61
2023/05/18 07:49:15;;;;;;;1.73;1.20;;;17.90;56.90;;;;;;5072514;28;20198;-62
2023/05/18 07:51:41;;;;;;;1.67;1.30;;;17.90;57.00;;;;;;5074157;28;20206;-62
2023/05/18 07:54:06;;;;;;;1.60;1.30;;;17.90;56.90;;;;;;5072870;28;20204;-61
2023/05/18 07:56:32;;;;;;;1.92;1.45;;;17.90;56.80;;;;;;5074059;28;20179;-61
2023/05/18 07:58:57;;;;;;;1.98;1.02;;;17.90;56.80;;;;;;5073804;28;20270;-62
2023/05/18 08:01:26;;;;;;;1.83;1.25;;;18.00;56.90;;;;;;5072818;28;20211;-62
2023/05/18 08:03:55;;;;;;;1.80;1.17;;;18.00;56.80;;;;;;5073823;28;20179;-62
2023/05/18 08:06:21;;;;;;;1.02;1.00;;;18.00;56.80;;;;;;5073594;28;20174;-62
2023/05/18 08:08:46;;;;;;;2.55;1.58;;;18.00;56.80;;;;;;5071664;28;20182;-62
2023/05/18 08:11:12;;;;;;;2.50;1.17;;;17.90;56.80;;;;;;5073446;28;20224;-61
2023/05/18 08:13:37;;;;;;;1.55;1.30;;;18.00;56.80;;;;;;5073650;28;20667;-61
2023/05/18 08:16:03;;;;;;;2.08;1.30;;;18.00;56.80;;;;;;5072667;28;20277;-61
2023/05/18 08:18:28;;;;;;;2.85;1.40;;;17.90;56.80;;;;;;5073082;28;20633;-61
2023/05/18 08:20:54;;;;;;;1.60;1.15;;;18.00;56.80;;;;;;5073641;28;20227;-61
2023/05/18 08:23:20;;;;;;;1.80;1.20;;;18.00;56.80;;;;;;5072342;28;20174;-61
2023/05/18 08:25:45;;;;;;;2.03;1.13;;;18.00;56.80;;;;;;5073128;28;20209;-61
2023/05/18 08:28:11;;;;;;;1.88;1.42;;;18.00;56.80;;;;;;5072296;28;20185;-61
2023/05/18 08:30:36;;;;;;;1.77;0.95;;;18.00;56.80;;;;;;5073247;28;20184;-62
2023/05/18 08:33:02;;;;;;;2.60;1.60;;;18.00;56.90;;;;;;5073131;28;20641;-61
2023/05/18 08:35:28;;;;;;;1.98;1.30;;;18.00;56.90;;;;;;5071917;28;20788;-61
2023/05/18 08:37:54;;;;;;;1.10;1.00;;;18.00;56.90;;;;;;5073182;28;20297;-62
2023/05/18 08:40:19;;;;;;;1.63;1.40;;;18.00;56.90;;;;;;5072961;28;20618;-61
2023/05/18 08:43:04;;;;;;;1.55;1.25;;;18.00;56.90;;;;;;5072477;28;20186;-62
2023/05/18 08:45:47;;;;;;;1.88;1.33;;;18.00;56.90;;;;;;5072839;28;20641;-61
2023/05/18 08:48:15;;;;;;;1.38;1.20;;;18.00;56.90;;;;;;5071525;28;20645;-61
2023/05/18 08:50:41;;;;;;;2.83;1.05;;;18.00;56.90;;;;;;5072547;28;20185;-61
2023/05/18 08:53:06;;;;;;;1.70;1.20;;;18.00;56.90;;;;;;5072744;28;20170;-62
2023/05/18 08:55:35;;;;;;;2.50;1.42;;;18.00;56.90;;;;;;5072062;28;20166;-62
2023/05/18 08:58:02;;;;;;;1.05;0.90;;;18.10;56.90;;;;;;5072040;28;20212;-62
2023/05/18 09:00:27;;;;;;;2.65;1.25;;;18.10;56.90;;;;;;5072470;28;20668;-62
2023/05/18 09:02:53;;;;;;;1.83;1.20;;;18.10;57.50;;;;;;5072810;28;20182;-62
2023/05/18 09:05:19;;;;;;;1.45;1.30;;;18.10;56.80;;;;;;5071991;28;20174;-62
2023/05/18 09:07:44;;;;;;;2.55;1.55;;;18.10;56.80;;;;;;5071681;28;20629;-61
2023/05/18 09:10:10;;;;;;;1.98;1.30;;;18.20;56.80;;;;;;5072505;28;20174;-61
2023/05/18 09:12:36;;;;;;;1.70;1.20;;;18.20;56.70;;;;;;5071987;28;20706;-61
2023/05/18 09:15:02;;;;;;;1.70;1.20;;;18.20;56.70;;;;;;5071646;28;20255;-61
2023/05/18 09:17:28;;;;;;;2.05;1.45;;;18.20;56.70;;;;;;5071669;28;20269;-61
2023/05/18 09:19:53;;;;;;;1.60;1.20;;;18.30;56.70;;;;;;5071581;28;20680;-61
2023/05/18 09:22:19;;;;;;;2.72;1.30;;;18.30;56.50;;;;;;5072437;28;20532;-61
2023/05/18 09:24:44;;;;;;;1.45;1.15;;;18.30;56.50;;;;;;5071840;28;20637;-61
2023/05/18 09:27:10;;;;;;;2.28;1.30;;;18.30;56.50;;;;;;5071111;28;20178;-61
2023/05/18 09:29:35;;;;;;;1.77;1.20;;;18.30;56.50;;;;;;5071345;28;20170;-62
2023/05/18 09:32:03;;;;;;;3.10;1.70;;;18.30;56.60;;;;;;5070837;28;20177;-62
2023/05/18 09:34:38;;;;;;;2.40;1.35;;;18.30;56.60;;;;;;5072032;28;20704;-63
2023/05/18 09:37:04;;;;;;;2.33;1.40;;;18.40;56.60;;;;;;5072545;28;20178;-62
2023/05/18 09:39:30;;;;;;;2.15;1.40;;;18.40;56.50;;;;;;5073450;28;20206;-62
2023/05/18 09:41:56;;;;;;;1.33;1.10;;;18.30;56.50;;;;;;5076404;28;20580;-61
2023/05/18 09:44:35;;;;;;;2.00;1.25;;;18.30;56.60;;;;;;5076311;28;20185;-62
2023/05/18 09:47:01;;;;;;;1.75;1.10;;;18.30;56.60;;;;;;5074525;28;20185;-62
2023/05/18 09:49:29;;;;;;;1.60;1.50;;;18.30;56.60;;;;;;5076288;28;20174;-61
2023/05/18 09:51:56;;;;;;;1.33;1.10;;;18.50;56.60;;;;;;5076192;28;20167;-61
2023/05/18 09:54:22;;;;;;;2.47;1.20;;;18.50;56.50;;;;;;5075222;28;20185;-62
2023/05/18 09:56:48;;;;;;;2.50;1.42;;;18.50;56.50;;;;;;5075252;28;20174;-62
2023/05/18 09:59:14;;;;;;;2.42;1.35;;;18.50;56.40;;;;;;5074676;28;20700;-62
2023/05/18 10:02:00;;;;;;;3.78;1.33;;;18.50;56.40;;;;;;5075506;28;20537;-62
2023/05/18 10:04:34;;;;;;;2.55;1.67;;;18.50;56.40;;;;;;5075622;28;20186;-62
2023/05/18 10:07:00;;;;;;;1.67;1.05;;;18.50;56.40;;;;;;5075553;28;20181;-62
2023/05/18 10:09:26;;;;;;;1.40;1.30;;;18.50;56.50;;;;;;5075492;28;20228;-61
2023/05/18 10:11:51;;;;;;;1.63;1.10;;;18.50;56.50;;;;;;5075996;28;20171;-61
2023/05/18 10:14:17;;;;;;;1.70;1.10;;;18.50;56.50;;;;;;5074845;28;20186;-61
2023/05/18 10:16:42;;;;;;;1.48;1.10;;;18.50;56.50;;;;;;5074592;28;20170;-61
2023/05/18 10:19:08;;;;;;;1.50;1.30;;;18.50;56.40;;;;;;5074310;28;20206;-61
2023/05/18 10:21:33;;;;;;;1.58;1.30;;;18.60;56.50;;;;;;5073738;28;20320;-61
2023/05/18 10:24:00;;;;;;;1.05;0.95;;;18.50;56.50;;;;;;5074378;28;20311;-61
2023/05/18 10:26:25;;;;;;;1.45;1.35;;;18.60;56.50;;;;;;5074282;28;20210;-61
2023/05/18 10:28:51;;;;;;;2.40;1.20;;;18.60;56.50;;;;;;5073585;28;20691;-61
2023/05/18 10:31:17;;;;;;;1.85;1.55;;;18.50;56.40;;;;;;5075269;28;20280;-62
2023/05/18 10:33:43;;;;;;;1.23;1.10;;;18.60;56.50;;;;;;5074284;28;20198;-62
2023/05/18 10:36:08;;;;;;;2.13;1.30;;;18.60;56.50;;;;;;5074145;28;20226;-62
2023/05/18 10:38:34;;;;;;;2.70;1.38;;;18.60;56.40;;;;;;5075490;28;20564;-61
2023/05/18 10:41:00;;;;;;;2.08;1.15;;;18.60;56.40;;;;;;5074327;28;20170;-62
2023/05/18 10:43:26;;;;;;;1.92;1.10;;;18.60;56.50;;;;;;5074355;28;20175;-61
2023/05/18 10:45:59;;;;;;;1.52;1.20;;;18.60;56.40;;;;;;5075146;28;20174;-62
2023/05/18 10:48:25;;;;;;;1.45;1.35;;;18.60;56.50;;;;;;5074848;28;20210;-62
2023/05/18 10:50:52;;;;;;;2.15;1.30;;;18.60;56.40;;;;;;5073377;28;20205;-62
2023/05/18 10:53:26;;;;;;;1.00;1.00;;;18.60;56.50;;;;;;5075007;28;20551;-61
2023/05/18 10:55:51;;;;;;;2.28;1.75;;;18.60;56.40;;;;;;5074673;28;20198;-62
2023/05/18 10:58:18;;;;;;;1.40;1.00;;;18.60;56.50;;;;;;5074755;28;20704;-62
2023/05/18 11:00:50;;;;;;;1.15;1.05;;;18.60;56.40;;;;;;5075109;28;20170;-65
2023/05/18 11:03:16;;;;;;;1.40;1.05;;;18.60;56.40;;;;;;5074347;28;20178;-66
2023/05/18 11:05:42;;;;;;;1.52;1.00;;;18.70;56.40;;;;;;5073850;28;20225;-62
2023/05/18 11:08:07;;;;;;;2.95;1.40;;;18.70;56.50;;;;;;5073560;28;20637;-62
2023/05/18 11:10:41;;;;;;;3.28;1.27;;;18.70;56.50;;;;;;5072807;28;20202;-62
2023/05/18 11:13:07;;;;;;;1.90;1.25;;;18.70;56.40;;;;;;5074632;28;20174;-61
2023/05/18 11:15:51;;;;;;;1.75;1.23;;;18.70;56.40;;;;;;5074719;28;20534;-61
2023/05/18 11:18:17;;;;;;;1.75;1.40;;;18.70;56.40;;;;;;5073711;28;20214;-62
2023/05/18 11:20:44;;;;;;;2.88;1.20;;;18.70;56.40;;;;;;5074701;28;20162;-61
2023/05/18 11:23:09;;;;;;;1.40;1.10;;;18.70;56.50;;;;;;5074370;28;20186;-61
2023/05/18 11:25:36;;;;;;;1.20;1.00;;;18.70;56.50;;;;;;5073823;28;20223;-61
2023/05/18 11:28:04;;;;;;;1.20;1.10;;;18.70;56.50;;;;;;5074344;28;20602;-62
2023/05/18 11:30:32;;;;;;;1.52;0.95;;;18.70;56.50;;;;;;5074617;28;20175;-62
2023/05/18 11:33:08;;;;;;;2.58;1.33;;;18.70;56.40;;;;;;5073848;28;20178;-63
2023/05/18 11:35:39;;;;;;;1.20;1.10;;;18.70;56.40;;;;;;5074248;28;20671;-62
2023/05/18 11:38:08;;;;;;;1.35;1.20;;;18.70;56.50;;;;;;5072158;28;20213;-62
2023/05/18 11:40:43;;;;;;;2.50;1.40;;;18.70;56.50;;;;;;5074193;28;20206;-61
2023/05/18 11:43:09;;;;;;;1.40;1.10;;;18.80;56.50;;;;;;5073971;28;20174;-62
2023/05/18 11:45:34;;;;;;;1.50;1.33;;;18.80;56.50;;;;;;5072087;28;20173;-62
2023/05/18 11:48:03;;;;;;;1.48;1.15;;;18.70;56.50;;;;;;5074094;28;20658;-62
2023/05/18 11:50:29;;;;;;;1.40;1.05;;;18.80;56.50;;;;;;5072585;28;20261;-61
2023/05/18 11:52:55;;;;;;;2.90;1.40;;;18.80;56.60;;;;;;5072211;28;20261;-61
2023/05/18 11:55:21;;;;;;;1.30;1.05;;;18.80;56.70;;;;;;5072362;28;20212;-62
2023/05/18 11:57:53;;;;;;;1.75;1.15;;;18.70;56.60;;;;;;5074001;28;20174;-62
2023/05/18 12:00:19;;;;;;;1.77;1.30;;;18.70;56.50;;;;;;5071826;28;20266;-63
2023/05/18 12:02:45;;;;;;;1.65;1.38;;;18.70;56.60;;;;;;5073570;28;20166;-63
2023/05/18 12:05:11;;;;;;;1.50;1.08;;;18.70;56.60;;;;;;5073683;28;20185;-62
2023/05/18 12:07:37;;;;;;;1.38;1.23;;;18.80;56.60;;;;;;5072904;28;20245;-61
2023/05/18 12:10:07;;;;;;;2.00;1.10;;;18.80;56.60;;;;;;5073836;28;20261;-61
2023/05/18 12:12:33;;;;;;;1.17;0.93;;;18.80;56.60;;;;;;5073662;28;20181;-61
2023/05/18 12:15:00;;;;;;;1.55;1.25;;;18.80;56.50;;;;;;5072903;28;20171;-61
2023/05/18 12:17:36;;;;;;;2.13;1.42;;;18.80;56.50;;;;;;5073146;28;20186;-61
2023/05/18 12:20:02;;;;;;;2.35;1.42;;;18.80;56.50;;;;;;5073151;28;20687;-61
2023/05/18 12:22:28;;;;;;;1.35;1.00;;;18.80;56.50;;;;;;5071197;28;20174;-61
2023/05/18 12:24:53;;;;;;;1.85;1.27;;;18.80;56.40;;;;;;5073572;28;20180;-61
2023/05/18 12:27:20;;;;;;;1.55;1.30;;;18.90;56.40;;;;;;5072472;28;20190;-61
2023/05/18 12:29:45;;;;;;;2.25;1.38;;;18.90;56.40;;;;;;5073420;28;20178;-62
2023/05/18 12:32:11;;;;;;;1.52;1.10;;;18.80;56.40;;;;;;5071872;28;20178;-62
2023/05/18 12:34:38;;;;;;;2.28;1.40;;;18.80;56.40;;;;;;5072245;28;20222;-62
2023/05/18 12:37:09;;;;;;;1.23;1.10;;;18.80;56.50;;;;;;5073532;28;20182;-62
2023/05/18 12:39:36;;;;;;;1.83;1.38;;;18.80;56.50;;;;;;5071981;28;20233;-62
2023/05/18 12:42:10;;;;;;;1.15;1.05;;;18.80;56.60;;;;;;5072411;28;20252;-62
2023/05/18 12:44:36;;;;;;;2.17;1.30;;;18.80;56.60;;;;;;5072982;28;20174;-62
2023/05/18 12:47:02;;;;;;;1.80;1.27;;;18.90;56.70;;;;;;5073008;28;20174;-62